sensor_id;sensor_type;location;lat;lon;timestamp;temperature;humidity
21085;DHT22;72320;50.082;20.000;2023-09-18T00:01:06;29.40;52.20
21085;DHT22;72320;50.082;20.000;2023-09-18T00:02:39;29.40;52.40
21085;DHT22;72320;50.082;20.000;2023-09-18T00:04:12;29.40;52.30
21085;DHT22;72320;50.082;20.000;2023-09-18T00:05:46;29.40;52.40
21085;DHT22;72320;50.082;20.000;2023-09-18T00:07:19;29.40;52.30
21085;DHT22;72320;50.082;20.000;2023-09-18T00:08:52;29.40;52.40
21085;DHT22;72320;50.082;20.000;2023-09-18T00:10:26;29.40;52.30
21085;DHT22;72320;50.082;20.000;2023-09-18T00:11:59;29.40;52.30
21085;DHT22;72320;50.082;20.000;2023-09-18T00:13:32;29.40;52.40
21085;DHT22;72320;50.082;20.000;2023-09-18T00:15:05;29.40;52.40
21085;DHT22;72320;50.082;20.000;2023-09-18T00:16:39;29.40;52.30
21085;DHT22;72320;50.082;20.000;2023-09-18T00:18:30;29.40;52.30
21085;DHT22;72320;50.082;20.000;2023-09-18T00:20:03;29.40;52.10
21085;DHT22;72320;50.082;20.000;2023-09-18T00:21:37;29.40;52.00
21085;DHT22;72320;50.082;20.000;2023-09-18T00:23:10;29.40;52.10
21085;DHT22;72320;50.082;20.000;2023-09-18T00:24:43;29.30;52.00
21085;DHT22;72320;50.082;20.000;2023-09-18T00:26:16;29.20;51.50
21085;DHT22;72320;50.082;20.000;2023-09-18T00:27:49;29.10;52.00
21085;DHT22;72320;50.082;20.000;2023-09-18T00:29:22;29.10;52.10
21085;DHT22;72320;50.082;20.000;2023-09-18T00:30:55;29.00;51.90
21085;DHT22;72320;50.082;20.000;2023-09-18T00:32:28;28.90;52.20
21085;DHT22;72320;50.082;20.000;2023-09-18T00:34:01;28.90;52.40
21085;DHT22;72320;50.082;20.000;2023-09-18T00:35:34;28.90;52.70
21085;DHT22;72320;50.082;20.000;2023-09-18T00:37:07;28.90;52.70
21085;DHT22;72320;50.082;20.000;2023-09-18T00:38:40;29.00;52.80
21085;DHT22;72320;50.082;20.000;2023-09-18T00:40:13;29.00;52.70
21085;DHT22;72320;50.082;20.000;2023-09-18T00:41:47;29.00;52.70
21085;DHT22;72320;50.082;20.000;2023-09-18T00:43:20;29.10;52.70
21085;DHT22;72320;50.082;20.000;2023-09-18T00:44:55;29.10;52.70
21085;DHT22;72320;50.082;20.000;2023-09-18T00:46:29;29.10;52.60
21085;DHT22;72320;50.082;20.000;2023-09-18T00:48:02;29.10;52.40
21085;DHT22;72320;50.082;20.000;2023-09-18T00:49:36;29.20;52.40
21085;DHT22;72320;50.082;20.000;2023-09-18T00:51:12;29.20;52.40
21085;DHT22;72320;50.082;20.000;2023-09-18T00:52:45;29.20;52.40
21085;DHT22;72320;50.082;20.000;2023-09-18T00:54:19;29.20;52.50
21085;DHT22;72320;50.082;20.000;2023-09-18T00:55:55;29.20;52.30
21085;DHT22;72320;50.082;20.000;2023-09-18T00:57:30;29.30;52.40
21085;DHT22;72320;50.082;20.000;2023-09-18T00:59:03;29.30;52.10
21085;DHT22;72320;50.082;20.000;2023-09-18T01:00:37;29.30;52.20
21085;DHT22;72320;50.082;20.000;2023-09-18T01:02:10;29.30;52.10
21085;DHT22;72320;50.082;20.000;2023-09-18T01:03:43;29.30;52.20
21085;DHT22;72320;50.082;20.000;2023-09-18T01:05:17;29.20;52.00
21085;DHT22;72320;50.082;20.000;2023-09-18T01:06:50;29.20;52.00
21085;DHT22;72320;50.082;20.000;2023-09-18T01:08:23;29.20;52.80
21085;DHT22;72320;50.082;20.000;2023-09-18T01:09:56;29.20;52.30
21085;DHT22;72320;50.082;20.000;2023-09-18T01:13:38;29.30;52.10
21085;DHT22;72320;50.082;20.000;2023-09-18T01:15:21;29.20;52.10
21085;DHT22;72320;50.082;20.000;2023-09-18T01:17:00;29.20;52.00
21085;DHT22;72320;50.082;20.000;2023-09-18T01:18:34;29.20;51.90
21085;DHT22;72320;50.082;20.000;2023-09-18T01:20:11;29.20;51.90
21085;DHT22;72320;50.082;20.000;2023-09-18T01:21:45;29.20;51.90
21085;DHT22;72320;50.082;20.000;2023-09-18T01:23:18;29.20;51.90
21085;DHT22;72320;50.082;20.000;2023-09-18T01:24:51;29.20;51.90
21085;DHT22;72320;50.082;20.000;2023-09-18T01:26:24;29.20;51.90
21085;DHT22;72320;50.082;20.000;2023-09-18T01:27:57;29.20;51.90
21085;DHT22;72320;50.082;20.000;2023-09-18T01:29:30;29.20;51.70
21085;DHT22;72320;50.082;20.000;2023-09-18T01:31:04;29.20;51.90
21085;DHT22;72320;50.082;20.000;2023-09-18T01:32:38;29.20;52.00
21085;DHT22;72320;50.082;20.000;2023-09-18T01:34:13;29.20;51.90
21085;DHT22;72320;50.082;20.000;2023-09-18T01:35:50;29.20;52.00
21085;DHT22;72320;50.082;20.000;2023-09-18T01:37:28;29.20;52.00
21085;DHT22;72320;50.082;20.000;2023-09-18T01:39:03;29.20;52.00
21085;DHT22;72320;50.082;20.000;2023-09-18T01:40:36;29.20;52.00
21085;DHT22;72320;50.082;20.000;2023-09-18T01:42:10;29.20;52.00
21085;DHT22;72320;50.082;20.000;2023-09-18T01:43:43;29.20;51.90
21085;DHT22;72320;50.082;20.000;2023-09-18T01:45:16;29.20;51.90
21085;DHT22;72320;50.082;20.000;2023-09-18T01:46:50;29.10;51.80
21085;DHT22;72320;50.082;20.000;2023-09-18T01:48:25;29.20;51.90
21085;DHT22;72320;50.082;20.000;2023-09-18T01:49:58;29.20;52.00
21085;DHT22;72320;50.082;20.000;2023-09-18T01:51:35;29.10;51.90
21085;DHT22;72320;50.082;20.000;2023-09-18T01:53:08;29.10;51.80
21085;DHT22;72320;50.082;20.000;2023-09-18T01:54:41;29.10;51.80
21085;DHT22;72320;50.082;20.000;2023-09-18T01:56:14;29.10;51.80
21085;DHT22;72320;50.082;20.000;2023-09-18T01:57:47;29.10;51.80
21085;DHT22;72320;50.082;20.000;2023-09-18T01:59:21;29.00;51.80
21085;DHT22;72320;50.082;20.000;2023-09-18T02:00:55;29.00;51.90
21085;DHT22;72320;50.082;20.000;2023-09-18T02:02:31;29.00;51.90
21085;DHT22;72320;50.082;20.000;2023-09-18T02:04:24;29.00;52.00
21085;DHT22;72320;50.082;20.000;2023-09-18T02:06:17;29.00;52.00
21085;DHT22;72320;50.082;20.000;2023-09-18T02:07:50;29.00;51.90
21085;DHT22;72320;50.082;20.000;2023-09-18T02:09:23;29.00;51.80
21085;DHT22;72320;50.082;20.000;2023-09-18T02:10:56;28.90;52.00
21085;DHT22;72320;50.082;20.000;2023-09-18T02:12:29;29.00;52.10
21085;DHT22;72320;50.082;20.000;2023-09-18T02:14:03;29.00;52.00
21085;DHT22;72320;50.082;20.000;2023-09-18T02:15:37;29.00;52.10
21085;DHT22;72320;50.082;20.000;2023-09-18T02:17:10;29.00;52.20
21085;DHT22;72320;50.082;20.000;2023-09-18T02:18:43;29.00;52.10
21085;DHT22;72320;50.082;20.000;2023-09-18T02:20:16;29.00;52.30
21085;DHT22;72320;50.082;20.000;2023-09-18T02:21:49;29.00;52.10
21085;DHT22;72320;50.082;20.000;2023-09-18T02:23:23;29.00;52.00
21085;DHT22;72320;50.082;20.000;2023-09-18T02:24:55;29.10;52.00
21085;DHT22;72320;50.082;20.000;2023-09-18T02:26:30;29.00;51.90
21085;DHT22;72320;50.082;20.000;2023-09-18T02:28:03;29.10;52.00
21085;DHT22;72320;50.082;20.000;2023-09-18T02:29:36;29.10;52.00
21085;DHT22;72320;50.082;20.000;2023-09-18T02:31:11;29.10;52.00
21085;DHT22;72320;50.082;20.000;2023-09-18T02:32:44;29.10;52.00
21085;DHT22;72320;50.082;20.000;2023-09-18T02:34:18;29.10;52.00
21085;DHT22;72320;50.082;20.000;2023-09-18T02:35:51;29.10;52.00
21085;DHT22;72320;50.082;20.000;2023-09-18T02:37:24;29.10;52.00
21085;DHT22;72320;50.082;20.000;2023-09-18T02:38:57;29.10;52.00
21085;DHT22;72320;50.082;20.000;2023-09-18T02:40:30;29.10;52.00
21085;DHT22;72320;50.082;20.000;2023-09-18T02:42:03;29.10;52.10
21085;DHT22;72320;50.082;20.000;2023-09-18T02:43:38;29.20;52.10
21085;DHT22;72320;50.082;20.000;2023-09-18T02:45:11;29.20;52.10
21085;DHT22;72320;50.082;20.000;2023-09-18T02:46:44;29.20;52.10
21085;DHT22;72320;50.082;20.000;2023-09-18T02:48:17;29.20;52.00
21085;DHT22;72320;50.082;20.000;2023-09-18T02:49:51;29.30;52.00
21085;DHT22;72320;50.082;20.000;2023-09-18T02:51:24;29.30;52.00
21085;DHT22;72320;50.082;20.000;2023-09-18T02:52:57;29.30;51.80
21085;DHT22;72320;50.082;20.000;2023-09-18T02:54:30;29.40;51.80
21085;DHT22;72320;50.082;20.000;2023-09-18T02:56:03;29.40;51.70
21085;DHT22;72320;50.082;20.000;2023-09-18T02:57:36;29.40;51.70
21085;DHT22;72320;50.082;20.000;2023-09-18T02:59:09;29.40;51.70
21085;DHT22;72320;50.082;20.000;2023-09-18T03:00:43;29.40;51.60
21085;DHT22;72320;50.082;20.000;2023-09-18T03:02:18;29.40;51.60
21085;DHT22;72320;50.082;20.000;2023-09-18T03:03:52;29.50;51.70
21085;DHT22;72320;50.082;20.000;2023-09-18T03:05:25;29.40;51.50
21085;DHT22;72320;50.082;20.000;2023-09-18T03:06:58;29.40;51.50
21085;DHT22;72320;50.082;20.000;2023-09-18T03:08:32;29.40;51.70
21085;DHT22;72320;50.082;20.000;2023-09-18T03:10:05;29.40;51.70
21085;DHT22;72320;50.082;20.000;2023-09-18T03:11:39;29.40;51.70
21085;DHT22;72320;50.082;20.000;2023-09-18T03:13:14;29.50;51.70
21085;DHT22;72320;50.082;20.000;2023-09-18T03:14:48;29.50;51.60
21085;DHT22;72320;50.082;20.000;2023-09-18T03:16:21;29.50;51.60
21085;DHT22;72320;50.082;20.000;2023-09-18T03:17:54;29.50;51.60
21085;DHT22;72320;50.082;20.000;2023-09-18T03:19:27;29.50;51.70
21085;DHT22;72320;50.082;20.000;2023-09-18T03:21:00;29.60;51.70
21085;DHT22;72320;50.082;20.000;2023-09-18T03:22:33;29.60;51.70
21085;DHT22;72320;50.082;20.000;2023-09-18T03:24:06;29.60;51.60
21085;DHT22;72320;50.082;20.000;2023-09-18T03:25:39;29.60;51.50
21085;DHT22;72320;50.082;20.000;2023-09-18T03:27:23;29.60;51.50
21085;DHT22;72320;50.082;20.000;2023-09-18T03:28:56;29.60;51.50
21085;DHT22;72320;50.082;20.000;2023-09-18T03:30:29;29.70;51.50
21085;DHT22;72320;50.082;20.000;2023-09-18T03:32:02;29.70;51.40
21085;DHT22;72320;50.082;20.000;2023-09-18T03:33:35;29.70;51.40
21085;DHT22;72320;50.082;20.000;2023-09-18T03:35:09;29.70;51.50
21085;DHT22;72320;50.082;20.000;2023-09-18T03:36:43;29.70;51.30
21085;DHT22;72320;50.082;20.000;2023-09-18T03:38:16;29.70;51.40
21085;DHT22;72320;50.082;20.000;2023-09-18T03:39:49;29.70;51.30
21085;DHT22;72320;50.082;20.000;2023-09-18T03:41:22;29.70;51.30
21085;DHT22;72320;50.082;20.000;2023-09-18T03:42:55;29.70;51.40
21085;DHT22;72320;50.082;20.000;2023-09-18T03:44:28;29.70;51.40
21085;DHT22;72320;50.082;20.000;2023-09-18T03:46:05;29.70;51.30
21085;DHT22;72320;50.082;20.000;2023-09-18T03:47:40;29.70;51.30
21085;DHT22;72320;50.082;20.000;2023-09-18T03:49:14;29.60;51.40
21085;DHT22;72320;50.082;20.000;2023-09-18T03:50:47;29.60;51.30
21085;DHT22;72320;50.082;20.000;2023-09-18T03:52:21;29.60;51.40
21085;DHT22;72320;50.082;20.000;2023-09-18T03:53:53;29.60;51.30
21085;DHT22;72320;50.082;20.000;2023-09-18T03:55:26;29.50;51.40
21085;DHT22;72320;50.082;20.000;2023-09-18T03:56:59;29.40;51.50
21085;DHT22;72320;50.082;20.000;2023-09-18T03:58:32;29.30;51.80
21085;DHT22;72320;50.082;20.000;2023-09-18T04:00:21;29.20;51.90
21085;DHT22;72320;50.082;20.000;2023-09-18T04:01:54;29.10;52.00
21085;DHT22;72320;50.082;20.000;2023-09-18T04:03:27;29.10;52.20
21085;DHT22;72320;50.082;20.000;2023-09-18T04:05:00;28.90;52.30
21085;DHT22;72320;50.082;20.000;2023-09-18T04:06:42;28.80;52.50
21085;DHT22;72320;50.082;20.000;2023-09-18T04:08:16;28.70;52.70
21085;DHT22;72320;50.082;20.000;2023-09-18T04:09:49;28.60;52.90
21085;DHT22;72320;50.082;20.000;2023-09-18T04:11:22;28.50;53.10
21085;DHT22;72320;50.082;20.000;2023-09-18T04:12:55;28.40;53.20
21085;DHT22;72320;50.082;20.000;2023-09-18T04:14:28;28.30;53.50
21085;DHT22;72320;50.082;20.000;2023-09-18T04:16:01;28.20;53.60
21085;DHT22;72320;50.082;20.000;2023-09-18T04:17:34;28.20;53.80
21085;DHT22;72320;50.082;20.000;2023-09-18T04:19:07;28.20;53.90
21085;DHT22;72320;50.082;20.000;2023-09-18T04:20:41;28.20;53.80
21085;DHT22;72320;50.082;20.000;2023-09-18T04:22:14;28.30;53.70
21085;DHT22;72320;50.082;20.000;2023-09-18T04:23:47;28.30;53.70
21085;DHT22;72320;50.082;20.000;2023-09-18T04:25:20;28.40;53.70
21085;DHT22;72320;50.082;20.000;2023-09-18T04:26:53;28.50;53.60
21085;DHT22;72320;50.082;20.000;2023-09-18T04:28:26;28.60;53.50
21085;DHT22;72320;50.082;20.000;2023-09-18T04:29:59;28.80;53.40
21085;DHT22;72320;50.082;20.000;2023-09-18T04:31:32;28.90;53.20
21085;DHT22;72320;50.082;20.000;2023-09-18T04:33:05;29.00;53.00
21085;DHT22;72320;50.082;20.000;2023-09-18T04:34:38;29.10;52.70
21085;DHT22;72320;50.082;20.000;2023-09-18T04:36:11;29.00;52.50
21085;DHT22;72320;50.082;20.000;2023-09-18T04:37:44;28.80;52.60
21085;DHT22;72320;50.082;20.000;2023-09-18T04:39:17;28.70;52.70
21085;DHT22;72320;50.082;20.000;2023-09-18T04:40:58;28.80;52.80
21085;DHT22;72320;50.082;20.000;2023-09-18T04:42:32;28.90;52.80
21085;DHT22;72320;50.082;20.000;2023-09-18T04:44:05;28.80;52.60
21085;DHT22;72320;50.082;20.000;2023-09-18T04:45:38;28.80;52.60
21085;DHT22;72320;50.082;20.000;2023-09-18T04:47:11;28.60;52.70
21085;DHT22;72320;50.082;20.000;2023-09-18T04:48:44;28.50;53.00
21085;DHT22;72320;50.082;20.000;2023-09-18T04:50:17;28.40;53.00
21085;DHT22;72320;50.082;20.000;2023-09-18T04:51:51;28.40;53.20
21085;DHT22;72320;50.082;20.000;2023-09-18T04:53:24;28.50;53.20
21085;DHT22;72320;50.082;20.000;2023-09-18T04:54:58;28.60;53.10
21085;DHT22;72320;50.082;20.000;2023-09-18T04:56:31;28.70;52.80
21085;DHT22;72320;50.082;20.000;2023-09-18T04:58:04;28.80;52.90
21085;DHT22;72320;50.082;20.000;2023-09-18T04:59:37;28.90;52.80
21085;DHT22;72320;50.082;20.000;2023-09-18T05:01:10;28.90;52.70
21085;DHT22;72320;50.082;20.000;2023-09-18T05:02:44;29.00;52.70
21085;DHT22;72320;50.082;20.000;2023-09-18T05:04:18;29.00;52.60
21085;DHT22;72320;50.082;20.000;2023-09-18T05:05:51;29.10;52.50
21085;DHT22;72320;50.082;20.000;2023-09-18T05:07:24;29.10;52.30
21085;DHT22;72320;50.082;20.000;2023-09-18T05:08:57;29.20;52.10
21085;DHT22;72320;50.082;20.000;2023-09-18T05:10:31;29.30;52.10
21085;DHT22;72320;50.082;20.000;2023-09-18T05:12:05;29.30;52.10
21085;DHT22;72320;50.082;20.000;2023-09-18T05:13:38;29.30;51.90
21085;DHT22;72320;50.082;20.000;2023-09-18T05:15:12;29.20;51.90
21085;DHT22;72320;50.082;20.000;2023-09-18T05:16:45;29.20;52.00
21085;DHT22;72320;50.082;20.000;2023-09-18T05:18:18;29.30;52.00
21085;DHT22;72320;50.082;20.000;2023-09-18T05:19:51;29.30;51.90
21085;DHT22;72320;50.082;20.000;2023-09-18T05:21:24;29.30;51.70
21085;DHT22;72320;50.082;20.000;2023-09-18T05:22:58;29.20;51.70
21085;DHT22;72320;50.082;20.000;2023-09-18T05:24:32;29.30;51.70
21085;DHT22;72320;50.082;20.000;2023-09-18T05:26:05;29.30;51.70
21085;DHT22;72320;50.082;20.000;2023-09-18T05:27:38;29.30;51.70
21085;DHT22;72320;50.082;20.000;2023-09-18T05:29:11;29.20;51.70
21085;DHT22;72320;50.082;20.000;2023-09-18T05:30:44;29.10;51.80
21085;DHT22;72320;50.082;20.000;2023-09-18T05:32:17;29.00;51.90
21085;DHT22;72320;50.082;20.000;2023-09-18T05:33:50;29.10;52.20
21085;DHT22;72320;50.082;20.000;2023-09-18T05:35:23;29.00;52.30
21085;DHT22;72320;50.082;20.000;2023-09-18T05:36:56;29.10;52.20
21085;DHT22;72320;50.082;20.000;2023-09-18T05:38:29;29.20;52.20
21085;DHT22;72320;50.082;20.000;2023-09-18T05:40:05;29.20;52.10
21085;DHT22;72320;50.082;20.000;2023-09-18T05:41:40;29.30;52.10
21085;DHT22;72320;50.082;20.000;2023-09-18T05:43:14;29.10;52.20
21085;DHT22;72320;50.082;20.000;2023-09-18T05:44:47;29.00;52.40
21085;DHT22;72320;50.082;20.000;2023-09-18T05:46:20;29.00;52.60
21085;DHT22;72320;50.082;20.000;2023-09-18T05:47:53;28.90;52.70
21085;DHT22;72320;50.082;20.000;2023-09-18T05:49:26;28.80;53.00
21085;DHT22;72320;50.082;20.000;2023-09-18T05:50:59;28.90;53.00
21085;DHT22;72320;50.082;20.000;2023-09-18T05:52:33;29.00;53.00
21085;DHT22;72320;50.082;20.000;2023-09-18T05:54:07;29.10;52.90
21085;DHT22;72320;50.082;20.000;2023-09-18T05:55:40;29.20;52.70
21085;DHT22;72320;50.082;20.000;2023-09-18T05:57:13;29.30;52.70
21085;DHT22;72320;50.082;20.000;2023-09-18T05:58:46;29.50;52.50
21085;DHT22;72320;50.082;20.000;2023-09-18T06:00:19;29.60;52.40
21085;DHT22;72320;50.082;20.000;2023-09-18T06:01:52;29.70;52.10
21085;DHT22;72320;50.082;20.000;2023-09-18T06:03:26;30.00;51.70
21085;DHT22;72320;50.082;20.000;2023-09-18T06:05:00;30.20;51.30
21085;DHT22;72320;50.082;20.000;2023-09-18T06:06:33;30.50;51.00
21085;DHT22;72320;50.082;20.000;2023-09-18T06:08:07;30.80;50.50
21085;DHT22;72320;50.082;20.000;2023-09-18T06:09:40;31.00;50.00
21085;DHT22;72320;50.082;20.000;2023-09-18T06:11:13;31.30;49.70
21085;DHT22;72320;50.082;20.000;2023-09-18T06:12:47;31.50;49.00
21085;DHT22;72320;50.082;20.000;2023-09-18T06:14:20;31.70;48.70
21085;DHT22;72320;50.082;20.000;2023-09-18T06:15:55;31.70;49.40
21085;DHT22;72320;50.082;20.000;2023-09-18T06:17:29;31.90;48.20
21085;DHT22;72320;50.082;20.000;2023-09-18T06:19:02;32.10;47.90
21085;DHT22;72320;50.082;20.000;2023-09-18T06:20:35;32.20;47.70
21085;DHT22;72320;50.082;20.000;2023-09-18T06:22:08;32.30;47.70
21085;DHT22;72320;50.082;20.000;2023-09-18T06:23:41;32.40;47.90
21085;DHT22;72320;50.082;20.000;2023-09-18T06:25:14;32.40;47.30
21085;DHT22;72320;50.082;20.000;2023-09-18T06:26:47;32.40;46.80
21085;DHT22;72320;50.082;20.000;2023-09-18T06:28:20;32.50;46.70
21085;DHT22;72320;50.082;20.000;2023-09-18T06:29:53;32.40;47.00
21085;DHT22;72320;50.082;20.000;2023-09-18T06:31:26;32.40;47.10
21085;DHT22;72320;50.082;20.000;2023-09-18T06:32:59;32.30;47.60
21085;DHT22;72320;50.082;20.000;2023-09-18T06:34:33;32.20;47.10
21085;DHT22;72320;50.082;20.000;2023-09-18T06:36:07;32.20;47.80
21085;DHT22;72320;50.082;20.000;2023-09-18T06:37:40;32.20;47.70
21085;DHT22;72320;50.082;20.000;2023-09-18T06:39:13;32.00;47.50
21085;DHT22;72320;50.082;20.000;2023-09-18T06:40:46;32.10;47.30
21085;DHT22;72320;50.082;20.000;2023-09-18T06:42:20;32.10;47.30
21085;DHT22;72320;50.082;20.000;2023-09-18T06:43:53;32.20;47.50
21085;DHT22;72320;50.082;20.000;2023-09-18T06:45:26;32.20;47.40
21085;DHT22;72320;50.082;20.000;2023-09-18T06:47:00;32.20;47.60
21085;DHT22;72320;50.082;20.000;2023-09-18T06:48:33;32.30;47.00
21085;DHT22;72320;50.082;20.000;2023-09-18T06:50:06;32.40;47.10
21085;DHT22;72320;50.082;20.000;2023-09-18T06:51:39;32.50;46.70
21085;DHT22;72320;50.082;20.000;2023-09-18T06:53:15;32.60;46.50
21085;DHT22;72320;50.082;20.000;2023-09-18T06:54:51;32.60;46.60
21085;DHT22;72320;50.082;20.000;2023-09-18T06:56:24;32.70;46.40
21085;DHT22;72320;50.082;20.000;2023-09-18T06:57:57;32.80;46.30
21085;DHT22;72320;50.082;20.000;2023-09-18T06:59:30;32.90;46.50
21085;DHT22;72320;50.082;20.000;2023-09-18T07:01:07;32.90;46.10
21085;DHT22;72320;50.082;20.000;2023-09-18T07:02:40;32.90;46.00
21085;DHT22;72320;50.082;20.000;2023-09-18T07:04:14;32.90;46.10
21085;DHT22;72320;50.082;20.000;2023-09-18T07:05:47;32.90;46.50
21085;DHT22;72320;50.082;20.000;2023-09-18T07:07:20;32.70;47.00
21085;DHT22;72320;50.082;20.000;2023-09-18T07:08:53;32.60;47.10
21085;DHT22;72320;50.082;20.000;2023-09-18T07:10:27;32.70;46.80
21085;DHT22;72320;50.082;20.000;2023-09-18T07:12:00;32.70;46.60
21085;DHT22;72320;50.082;20.000;2023-09-18T07:13:33;32.80;46.80
21085;DHT22;72320;50.082;20.000;2023-09-18T07:15:07;32.80;47.00
21085;DHT22;72320;50.082;20.000;2023-09-18T07:16:40;32.80;47.10
21085;DHT22;72320;50.082;20.000;2023-09-18T07:18:13;32.90;46.90
21085;DHT22;72320;50.082;20.000;2023-09-18T07:19:46;32.80;46.80
21085;DHT22;72320;50.082;20.000;2023-09-18T07:21:19;32.80;46.60
21085;DHT22;72320;50.082;20.000;2023-09-18T07:22:52;32.90;46.30
21085;DHT22;72320;50.082;20.000;2023-09-18T07:24:25;32.90;46.10
21085;DHT22;72320;50.082;20.000;2023-09-18T07:25:59;33.00;46.30
21085;DHT22;72320;50.082;20.000;2023-09-18T07:27:32;33.10;46.10
21085;DHT22;72320;50.082;20.000;2023-09-18T07:29:05;33.20;45.80
21085;DHT22;72320;50.082;20.000;2023-09-18T07:30:38;33.20;46.10
21085;DHT22;72320;50.082;20.000;2023-09-18T07:32:11;33.10;46.60
21085;DHT22;72320;50.082;20.000;2023-09-18T07:33:49;33.00;46.30
21085;DHT22;72320;50.082;20.000;2023-09-18T07:35:23;32.90;46.40
21085;DHT22;72320;50.082;20.000;2023-09-18T07:36:57;33.00;47.00
21085;DHT22;72320;50.082;20.000;2023-09-18T07:38:31;32.90;46.30
21085;DHT22;72320;50.082;20.000;2023-09-18T07:40:06;32.90;46.70
21085;DHT22;72320;50.082;20.000;2023-09-18T07:41:39;32.80;46.60
21085;DHT22;72320;50.082;20.000;2023-09-18T07:43:13;32.80;46.10
21085;DHT22;72320;50.082;20.000;2023-09-18T07:44:47;32.90;46.30
21085;DHT22;72320;50.082;20.000;2023-09-18T07:46:20;32.90;46.30
21085;DHT22;72320;50.082;20.000;2023-09-18T07:47:53;33.10;46.10
21085;DHT22;72320;50.082;20.000;2023-09-18T07:49:26;33.10;46.30
21085;DHT22;72320;50.082;20.000;2023-09-18T07:50:59;33.20;45.90
21085;DHT22;72320;50.082;20.000;2023-09-18T07:52:32;33.30;46.00
21085;DHT22;72320;50.082;20.000;2023-09-18T07:54:07;33.30;45.40
21085;DHT22;72320;50.082;20.000;2023-09-18T07:55:40;33.50;45.10
21085;DHT22;72320;50.082;20.000;2023-09-18T07:57:13;33.60;45.00
21085;DHT22;72320;50.082;20.000;2023-09-18T07:58:46;33.70;44.60
21085;DHT22;72320;50.082;20.000;2023-09-18T08:00:19;33.80;44.70
21085;DHT22;72320;50.082;20.000;2023-09-18T08:01:52;33.90;44.50
21085;DHT22;72320;50.082;20.000;2023-09-18T08:03:25;34.10;43.90
21085;DHT22;72320;50.082;20.000;2023-09-18T08:04:59;34.20;44.00
21085;DHT22;72320;50.082;20.000;2023-09-18T08:06:32;34.20;43.80
21085;DHT22;72320;50.082;20.000;2023-09-18T08:08:05;34.30;44.00
21085;DHT22;72320;50.082;20.000;2023-09-18T08:09:38;34.40;43.60
21085;DHT22;72320;50.082;20.000;2023-09-18T08:11:11;34.50;43.70
21085;DHT22;72320;50.082;20.000;2023-09-18T08:12:44;34.60;43.40
21085;DHT22;72320;50.082;20.000;2023-09-18T08:14:17;34.60;43.20
21085;DHT22;72320;50.082;20.000;2023-09-18T08:15:50;34.80;43.20
21085;DHT22;72320;50.082;20.000;2023-09-18T08:17:23;34.80;43.40
21085;DHT22;72320;50.082;20.000;2023-09-18T08:18:57;34.80;43.20
21085;DHT22;72320;50.082;20.000;2023-09-18T08:20:30;34.80;43.10
21085;DHT22;72320;50.082;20.000;2023-09-18T08:22:04;34.80;42.80
21085;DHT22;72320;50.082;20.000;2023-09-18T08:23:37;34.80;42.50
21085;DHT22;72320;50.082;20.000;2023-09-18T08:25:11;34.90;42.40
21085;DHT22;72320;50.082;20.000;2023-09-18T08:26:45;34.80;43.30
21085;DHT22;72320;50.082;20.000;2023-09-18T08:28:18;34.90;43.20
21085;DHT22;72320;50.082;20.000;2023-09-18T08:29:51;35.00;42.80
21085;DHT22;72320;50.082;20.000;2023-09-18T08:31:24;34.90;43.60
21085;DHT22;72320;50.082;20.000;2023-09-18T08:32:57;34.90;43.10
21085;DHT22;72320;50.082;20.000;2023-09-18T08:34:30;34.90;43.60
21085;DHT22;72320;50.082;20.000;2023-09-18T08:36:04;34.90;43.00
21085;DHT22;72320;50.082;20.000;2023-09-18T08:37:37;34.80;42.80
21085;DHT22;72320;50.082;20.000;2023-09-18T08:39:10;34.80;42.50
21085;DHT22;72320;50.082;20.000;2023-09-18T08:40:43;34.90;42.40
21085;DHT22;72320;50.082;20.000;2023-09-18T08:42:17;34.90;43.30
21085;DHT22;72320;50.082;20.000;2023-09-18T08:43:56;34.90;43.20
21085;DHT22;72320;50.082;20.000;2023-09-18T08:45:53;34.90;42.70
21085;DHT22;72320;50.082;20.000;2023-09-18T08:47:28;35.00;42.50
21085;DHT22;72320;50.082;20.000;2023-09-18T08:49:02;35.10;42.60
21085;DHT22;72320;50.082;20.000;2023-09-18T08:50:39;35.10;42.80
21085;DHT22;72320;50.082;20.000;2023-09-18T08:52:13;35.20;42.70
21085;DHT22;72320;50.082;20.000;2023-09-18T08:53:48;35.20;42.50
21085;DHT22;72320;50.082;20.000;2023-09-18T08:55:23;35.00;42.90
21085;DHT22;72320;50.082;20.000;2023-09-18T08:56:57;35.00;42.80
21085;DHT22;72320;50.082;20.000;2023-09-18T08:58:40;34.90;42.50
21085;DHT22;72320;50.082;20.000;2023-09-18T09:00:13;35.00;42.70
21085;DHT22;72320;50.082;20.000;2023-09-18T09:01:46;35.10;42.70
21085;DHT22;72320;50.082;20.000;2023-09-18T09:03:20;35.20;42.70
21085;DHT22;72320;50.082;20.000;2023-09-18T09:04:56;35.20;42.60
21085;DHT22;72320;50.082;20.000;2023-09-18T09:06:30;35.30;42.50
21085;DHT22;72320;50.082;20.000;2023-09-18T09:08:03;35.30;42.80
21085;DHT22;72320;50.082;20.000;2023-09-18T09:09:37;35.20;42.40
21085;DHT22;72320;50.082;20.000;2023-09-18T09:11:10;35.10;42.50
21085;DHT22;72320;50.082;20.000;2023-09-18T09:12:51;35.20;42.50
21085;DHT22;72320;50.082;20.000;2023-09-18T09:14:24;35.20;42.40
21085;DHT22;72320;50.082;20.000;2023-09-18T09:15:58;35.30;42.60
21085;DHT22;72320;50.082;20.000;2023-09-18T09:17:32;35.40;42.60
21085;DHT22;72320;50.082;20.000;2023-09-18T09:19:05;35.20;42.50
21085;DHT22;72320;50.082;20.000;2023-09-18T09:20:38;35.10;42.80
21085;DHT22;72320;50.082;20.000;2023-09-18T09:22:20;34.90;42.70
21085;DHT22;72320;50.082;20.000;2023-09-18T09:23:53;34.80;42.90
21085;DHT22;72320;50.082;20.000;2023-09-18T09:25:28;34.80;42.80
21085;DHT22;72320;50.082;20.000;2023-09-18T09:27:03;34.80;43.00
21085;DHT22;72320;50.082;20.000;2023-09-18T09:28:36;34.90;42.80
21085;DHT22;72320;50.082;20.000;2023-09-18T09:30:09;34.90;42.70
21085;DHT22;72320;50.082;20.000;2023-09-18T09:31:43;34.90;43.00
21085;DHT22;72320;50.082;20.000;2023-09-18T09:33:17;35.00;42.90
21085;DHT22;72320;50.082;20.000;2023-09-18T09:34:57;35.10;42.90
21085;DHT22;72320;50.082;20.000;2023-09-18T09:36:30;35.30;42.30
21085;DHT22;72320;50.082;20.000;2023-09-18T09:38:09;35.40;42.30
21085;DHT22;72320;50.082;20.000;2023-09-18T09:39:51;35.40;42.10
21085;DHT22;72320;50.082;20.000;2023-09-18T09:41:26;35.60;42.10
21085;DHT22;72320;50.082;20.000;2023-09-18T09:43:00;35.70;42.00
21085;DHT22;72320;50.082;20.000;2023-09-18T09:44:33;35.70;41.70
21085;DHT22;72320;50.082;20.000;2023-09-18T09:46:16;35.70;42.20